sensor_id;sensor_type;location;lat;lon;timestamp;noise_LAeq;noise_LA_min;noise_LA_max;noise_LA01;noise_LA95
11999;Laerm;40817;51.520;9.954;2023-07-29T00:01:25;43.23;37.70;54.08;;
11999;Laerm;40817;51.520;9.954;2023-07-29T00:03:52;42.87;35.36;59.61;;
11999;Laerm;40817;51.520;9.954;2023-07-29T00:06:20;42.98;37.12;55.95;;
11999;Laerm;40817;51.520;9.954;2023-07-29T00:08:48;43.17;39.70;54.45;;
11999;Laerm;40817;51.520;9.954;2023-07-29T00:11:15;43.19;33.90;58.31;;
11999;Laerm;40817;51.520;9.954;2023-07-29T00:13:42;43.43;35.66;56.19;;
11999;Laerm;40817;51.520;9.954;2023-07-29T00:16:12;43.93;40.03;57.23;;
11999;Laerm;40817;51.520;9.954;2023-07-29T00:18:41;45.25;39.92;58.23;;
11999;Laerm;40817;51.520;9.954;2023-07-29T00:21:09;44.26;36.45;64.26;;
11999;Laerm;40817;51.520;9.954;2023-07-29T00:23:37;44.34;39.21;55.91;;
11999;Laerm;40817;51.520;9.954;2023-07-29T00:26:04;44.11;38.81;57.83;;
11999;Laerm;40817;51.520;9.954;2023-07-29T00:28:31;44.28;40.43;60.12;;
11999;Laerm;40817;51.520;9.954;2023-07-29T00:30:59;44.15;39.46;55.43;;
11999;Laerm;40817;51.520;9.954;2023-07-29T00:33:28;44.46;40.71;56.55;;
11999;Laerm;40817;51.520;9.954;2023-07-29T00:35:55;46.84;42.03;56.22;;
11999;Laerm;40817;51.520;9.954;2023-07-29T00:38:23;44.92;40.03;50.49;;
11999;Laerm;40817;51.520;9.954;2023-07-29T00:40:50;44.38;36.45;59.80;;
11999;Laerm;40817;51.520;9.954;2023-07-29T00:43:22;43.95;37.87;56.02;;
11999;Laerm;40817;51.520;9.954;2023-07-29T00:45:50;43.31;38.67;57.02;;
11999;Laerm;40817;51.520;9.954;2023-07-29T00:48:17;43.43;36.20;57.42;;
11999;Laerm;40817;51.520;9.954;2023-07-29T00:50:46;43.57;38.37;54.81;;
11999;Laerm;40817;51.520;9.954;2023-07-29T00:53:14;43.02;39.21;45.30;;
11999;Laerm;40817;51.520;9.954;2023-07-29T00:55:41;42.71;34.69;57.35;;
11999;Laerm;40817;51.520;9.954;2023-07-29T00:58:10;43.18;35.36;57.44;;
11999;Laerm;40817;51.520;9.954;2023-07-29T01:00:37;43.46;37.70;55.94;;
11999;Laerm;40817;51.520;9.954;2023-07-29T01:03:04;46.43;38.21;60.23;;
11999;Laerm;40817;51.520;9.954;2023-07-29T01:05:43;43.99;39.21;56.44;;
11999;Laerm;40817;51.520;9.954;2023-07-29T01:08:36;43.42;38.52;57.61;;
11999;Laerm;40817;51.520;9.954;2023-07-29T01:11:24;44.11;38.21;56.73;;
11999;Laerm;40817;51.520;9.954;2023-07-29T01:14:05;43.94;39.81;57.24;;
11999;Laerm;40817;51.520;9.954;2023-07-29T01:16:42;44.03;35.94;46.66;;
11999;Laerm;40817;51.520;9.954;2023-07-29T01:19:35;43.59;35.66;54.53;;
11999;Laerm;40817;51.520;9.954;2023-07-29T01:22:07;43.54;34.69;57.03;;
11999;Laerm;40817;51.520;9.954;2023-07-29T01:24:36;43.47;34.69;45.75;;
11999;Laerm;40817;51.520;9.954;2023-07-29T01:27:04;42.98;37.70;56.76;;
11999;Laerm;40817;51.520;9.954;2023-07-29T01:29:32;42.95;35.59;46.15;;
11999;Laerm;40817;51.520;9.954;2023-07-29T01:32:09;43.30;36.69;47.62;;
11999;Laerm;40817;51.520;9.954;2023-07-29T01:34:45;43.51;37.70;56.48;;
11999;Laerm;40817;51.520;9.954;2023-07-29T01:37:18;43.46;36.45;47.34;;
11999;Laerm;40817;51.520;9.954;2023-07-29T01:39:50;45.15;41.14;57.38;;
11999;Laerm;40817;51.520;9.954;2023-07-29T01:42:18;43.34;38.21;55.27;;
11999;Laerm;40817;51.520;9.954;2023-07-29T01:44:45;42.96;38.21;47.28;;
11999;Laerm;40817;51.520;9.954;2023-07-29T01:47:13;42.67;37.70;56.81;;
11999;Laerm;40817;51.520;9.954;2023-07-29T01:49:41;42.95;38.37;44.94;;
11999;Laerm;40817;51.520;9.954;2023-07-29T01:52:17;43.10;39.08;56.91;;
11999;Laerm;40817;51.520;9.954;2023-07-29T01:54:45;46.76;38.95;71.96;;
11999;Laerm;40817;51.520;9.954;2023-07-29T01:57:14;43.08;39.21;56.67;;
11999;Laerm;40817;51.520;9.954;2023-07-29T01:59:42;42.57;37.88;53.89;;
11999;Laerm;40817;51.520;9.954;2023-07-29T02:02:09;42.58;38.52;45.33;;
11999;Laerm;40817;51.520;9.954;2023-07-29T02:04:37;42.94;39.70;56.22;;
11999;Laerm;40817;51.520;9.954;2023-07-29T02:07:05;43.37;34.69;45.65;;
11999;Laerm;40817;51.520;9.954;2023-07-29T02:09:33;43.97;39.58;56.74;;
11999;Laerm;40817;51.520;9.954;2023-07-29T02:12:00;43.33;40.13;45.91;;
11999;Laerm;40817;51.520;9.954;2023-07-29T02:14:30;43.46;40.23;55.50;;
11999;Laerm;40817;51.520;9.954;2023-07-29T02:16:57;42.81;39.92;55.59;;
11999;Laerm;40817;51.520;9.954;2023-07-29T02:19:24;43.91;39.08;53.95;;
11999;Laerm;40817;51.520;9.954;2023-07-29T02:21:52;43.54;39.70;47.14;;
11999;Laerm;40817;51.520;9.954;2023-07-29T02:24:19;43.43;40.13;49.06;;
11999;Laerm;40817;51.520;9.954;2023-07-29T02:26:46;44.39;40.53;54.69;;
11999;Laerm;40817;51.520;9.954;2023-07-29T02:29:14;43.28;38.95;55.26;;
11999;Laerm;40817;51.520;9.954;2023-07-29T02:31:42;43.05;38.52;52.99;;
11999;Laerm;40817;51.520;9.954;2023-07-29T02:34:10;42.67;37.88;52.72;;
11999;Laerm;40817;51.520;9.954;2023-07-29T02:36:37;43.10;38.81;46.40;;
11999;Laerm;40817;51.520;9.954;2023-07-29T02:39:05;42.47;36.69;46.89;;
11999;Laerm;40817;51.520;9.954;2023-07-29T02:41:32;42.52;39.08;52.78;;
11999;Laerm;40817;51.520;9.954;2023-07-29T02:43:59;42.95;38.81;55.48;;
11999;Laerm;40817;51.520;9.954;2023-07-29T02:46:27;42.71;38.81;49.75;;
11999;Laerm;40817;51.520;9.954;2023-07-29T02:48:55;43.23;39.81;54.36;;
11999;Laerm;40817;51.520;9.954;2023-07-29T02:51:23;42.99;35.04;48.51;;
11999;Laerm;40817;51.520;9.954;2023-07-29T02:53:50;43.26;38.37;45.48;;
11999;Laerm;40817;51.520;9.954;2023-07-29T02:56:18;43.19;38.81;45.78;;
11999;Laerm;40817;51.520;9.954;2023-07-29T02:58:46;43.12;39.46;56.25;;
11999;Laerm;40817;51.520;9.954;2023-07-29T03:01:13;43.51;40.13;48.26;;
11999;Laerm;40817;51.520;9.954;2023-07-29T03:04:02;43.58;36.91;46.30;;
11999;Laerm;40817;51.520;9.954;2023-07-29T03:06:30;43.69;40.88;53.31;;
11999;Laerm;40817;51.520;9.954;2023-07-29T03:08:57;43.25;36.45;46.66;;
11999;Laerm;40817;51.520;9.954;2023-07-29T03:11:25;43.17;39.81;45.01;;
11999;Laerm;40817;51.520;9.954;2023-07-29T03:13:52;43.56;40.45;45.89;;
11999;Laerm;40817;51.520;9.954;2023-07-29T03:16:20;43.70;40.33;55.64;;
11999;Laerm;40817;51.520;9.954;2023-07-29T03:18:49;43.13;38.67;48.76;;
11999;Laerm;40817;51.520;9.954;2023-07-29T03:21:18;43.07;39.08;55.18;;
11999;Laerm;40817;51.520;9.954;2023-07-29T03:23:45;43.45;39.70;46.89;;
11999;Laerm;40817;51.520;9.954;2023-07-29T03:26:12;43.09;39.81;44.97;;
11999;Laerm;40817;51.520;9.954;2023-07-29T03:28:42;43.40;39.58;50.21;;
11999;Laerm;40817;51.520;9.954;2023-07-29T03:31:10;43.61;39.58;55.50;;
11999;Laerm;40817;51.520;9.954;2023-07-29T03:33:38;43.55;40.45;49.74;;
11999;Laerm;40817;51.520;9.954;2023-07-29T03:36:06;44.00;40.98;49.85;;
11999;Laerm;40817;51.520;9.954;2023-07-29T03:38:35;44.05;41.46;45.91;;
11999;Laerm;40817;51.520;9.954;2023-07-29T03:41:06;43.93;40.62;47.10;;
11999;Laerm;40817;51.520;9.954;2023-07-29T03:43:34;43.68;39.92;52.56;;
11999;Laerm;40817;51.520;9.954;2023-07-29T03:46:02;43.09;38.95;46.13;;
11999;Laerm;40817;51.520;9.954;2023-07-29T03:48:29;43.57;39.58;50.84;;
11999;Laerm;40817;51.520;9.954;2023-07-29T03:50:57;43.41;38.95;45.66;;
11999;Laerm;40817;51.520;9.954;2023-07-29T03:53:24;43.81;40.53;57.04;;
11999;Laerm;40817;51.520;9.954;2023-07-29T03:55:53;44.44;39.34;51.52;;
11999;Laerm;40817;51.520;9.954;2023-07-29T03:58:21;42.80;39.35;44.83;;
11999;Laerm;40817;51.520;9.954;2023-07-29T04:00:48;42.36;39.08;44.62;;
11999;Laerm;40817;51.520;9.954;2023-07-29T04:03:17;42.29;37.70;45.27;;
11999;Laerm;40817;51.520;9.954;2023-07-29T04:05:44;42.98;39.58;45.36;;
11999;Laerm;40817;51.520;9.954;2023-07-29T04:08:12;43.24;39.92;49.58;;
11999;Laerm;40817;51.520;9.954;2023-07-29T04:10:40;42.96;39.58;45.45;;
11999;Laerm;40817;51.520;9.954;2023-07-29T04:13:08;43.02;39.70;45.30;;
11999;Laerm;40817;51.520;9.954;2023-07-29T04:15:36;42.84;38.21;60.08;;
11999;Laerm;40817;51.520;9.954;2023-07-29T04:18:03;43.61;39.08;47.96;;
11999;Laerm;40817;51.520;9.954;2023-07-29T04:20:31;43.43;39.46;53.20;;
11999;Laerm;40817;51.520;9.954;2023-07-29T04:23:00;43.23;39.70;58.31;;
11999;Laerm;40817;51.520;9.954;2023-07-29T04:25:28;43.14;40.03;45.23;;
11999;Laerm;40817;51.520;9.954;2023-07-29T04:27:55;43.38;39.70;46.87;;
11999;Laerm;40817;51.520;9.954;2023-07-29T04:30:25;44.48;40.98;54.18;;
11999;Laerm;40817;51.520;9.954;2023-07-29T04:32:52;52.44;43.29;71.97;;
11999;Laerm;40817;51.520;9.954;2023-07-29T04:35:20;51.01;43.19;77.46;;
11999;Laerm;40817;51.520;9.954;2023-07-29T04:37:48;49.00;42.29;73.91;;
11999;Laerm;40817;51.520;9.954;2023-07-29T04:40:16;54.52;43.39;78.02;;
11999;Laerm;40817;51.520;9.954;2023-07-29T04:42:44;56.43;46.82;78.58;;
11999;Laerm;40817;51.520;9.954;2023-07-29T04:45:13;56.01;43.72;78.80;;
11999;Laerm;40817;51.520;9.954;2023-07-29T04:47:42;53.45;40.80;78.70;;
11999;Laerm;40817;51.520;9.954;2023-07-29T04:50:10;46.79;40.33;77.48;;
11999;Laerm;40817;51.520;9.954;2023-07-29T04:52:37;45.16;41.06;69.43;;
11999;Laerm;40817;51.520;9.954;2023-07-29T04:55:06;45.63;40.80;71.61;;
11999;Laerm;40817;51.520;9.954;2023-07-29T04:57:33;44.77;40.43;69.64;;
11999;Laerm;40817;51.520;9.954;2023-07-29T05:00:02;45.45;40.13;69.73;;
11999;Laerm;40817;51.520;9.954;2023-07-29T05:02:30;45.28;42.00;69.63;;
11999;Laerm;40817;51.520;9.954;2023-07-29T05:04:58;44.30;40.62;69.94;;
11999;Laerm;40817;51.520;9.954;2023-07-29T05:07:26;44.29;40.53;68.74;;
11999;Laerm;40817;51.520;9.954;2023-07-29T05:09:53;44.78;40.98;70.18;;
11999;Laerm;40817;51.520;9.954;2023-07-29T05:12:21;44.72;40.80;69.78;;
11999;Laerm;40817;51.520;9.954;2023-07-29T05:14:49;45.37;40.71;69.77;;
11999;Laerm;40817;51.520;9.954;2023-07-29T05:17:16;44.51;39.92;70.05;;
11999;Laerm;40817;51.520;9.954;2023-07-29T05:19:44;44.37;41.14;67.80;;
11999;Laerm;40817;51.520;9.954;2023-07-29T05:22:12;44.72;41.22;69.90;;
11999;Laerm;40817;51.520;9.954;2023-07-29T05:24:40;44.16;40.53;68.82;;
11999;Laerm;40817;51.520;9.954;2023-07-29T05:27:07;43.99;41.14;56.64;;
11999;Laerm;40817;51.520;9.954;2023-07-29T05:29:35;44.90;41.38;70.12;;
11999;Laerm;40817;51.520;9.954;2023-07-29T05:32:03;44.21;40.89;69.39;;
11999;Laerm;40817;51.520;9.954;2023-07-29T05:34:30;44.12;40.71;67.83;;
11999;Laerm;40817;51.520;9.954;2023-07-29T05:36:58;44.39;40.98;69.78;;
11999;Laerm;40817;51.520;9.954;2023-07-29T05:39:27;45.34;40.80;68.97;;
11999;Laerm;40817;51.520;9.954;2023-07-29T05:41:54;44.25;40.53;68.56;;
11999;Laerm;40817;51.520;9.954;2023-07-29T05:44:22;44.46;41.30;70.35;;
11999;Laerm;40817;51.520;9.954;2023-07-29T05:46:49;44.60;41.61;70.15;;
11999;Laerm;40817;51.520;9.954;2023-07-29T05:49:17;45.18;41.53;69.93;;
11999;Laerm;40817;51.520;9.954;2023-07-29T05:51:44;44.34;41.03;70.44;;
11999;Laerm;40817;51.520;9.954;2023-07-29T05:54:12;43.58;40.62;56.37;;
11999;Laerm;40817;51.520;9.954;2023-07-29T05:56:41;44.19;40.62;70.66;;
11999;Laerm;40817;51.520;9.954;2023-07-29T05:59:10;44.45;41.53;69.23;;
11999;Laerm;40817;51.520;9.954;2023-07-29T06:01:37;44.30;40.03;68.38;;
11999;Laerm;40817;51.520;9.954;2023-07-29T06:04:05;44.64;41.38;69.79;;
11999;Laerm;40817;51.520;9.954;2023-07-29T06:06:32;44.55;41.14;55.99;;
11999;Laerm;40817;51.520;9.954;2023-07-29T06:09:00;44.45;40.33;69.82;;
11999;Laerm;40817;51.520;9.954;2023-07-29T06:11:27;45.10;42.22;70.17;;
11999;Laerm;40817;51.520;9.954;2023-07-29T06:13:56;45.07;41.68;57.82;;
11999;Laerm;40817;51.520;9.954;2023-07-29T06:16:24;44.72;41.53;69.93;;
11999;Laerm;40817;51.520;9.954;2023-07-29T06:18:51;44.66;41.06;70.24;;
11999;Laerm;40817;51.520;9.954;2023-07-29T06:21:19;44.14;40.13;51.30;;
11999;Laerm;40817;51.520;9.954;2023-07-29T06:23:47;44.16;40.53;68.46;;
11999;Laerm;40817;51.520;9.954;2023-07-29T06:26:15;43.75;39.70;56.95;;
11999;Laerm;40817;51.520;9.954;2023-07-29T06:28:42;44.61;40.80;69.92;;
11999;Laerm;40817;51.520;9.954;2023-07-29T06:31:11;43.87;40.71;54.21;;
11999;Laerm;40817;51.520;9.954;2023-07-29T06:33:39;44.43;40.98;68.61;;
11999;Laerm;40817;51.520;9.954;2023-07-29T06:36:06;44.16;41.22;51.98;;
11999;Laerm;40817;51.520;9.954;2023-07-29T06:38:34;44.08;40.89;69.48;;
11999;Laerm;40817;51.520;9.954;2023-07-29T06:41:01;43.81;40.89;52.51;;
11999;Laerm;40817;51.520;9.954;2023-07-29T06:43:29;45.17;40.98;69.74;;
11999;Laerm;40817;51.520;9.954;2023-07-29T06:45:57;56.78;41.30;77.13;;
11999;Laerm;40817;51.520;9.954;2023-07-29T06:48:26;44.33;41.38;58.94;;
11999;Laerm;40817;51.520;9.954;2023-07-29T06:50:54;44.84;41.89;69.40;;
11999;Laerm;40817;51.520;9.954;2023-07-29T06:53:26;44.59;40.98;54.76;;
11999;Laerm;40817;51.520;9.954;2023-07-29T06:55:54;44.39;41.46;55.50;;
11999;Laerm;40817;51.520;9.954;2023-07-29T06:58:21;44.32;40.80;68.65;;
11999;Laerm;40817;51.520;9.954;2023-07-29T07:00:49;44.40;40.80;63.17;;
11999;Laerm;40817;51.520;9.954;2023-07-29T07:03:16;44.59;42.09;50.17;;
11999;Laerm;40817;51.520;9.954;2023-07-29T07:05:45;44.20;41.75;52.29;;
11999;Laerm;40817;51.520;9.954;2023-07-29T07:08:13;44.47;41.14;68.95;;
11999;Laerm;40817;51.520;9.954;2023-07-29T07:10:40;44.21;41.46;52.77;;
11999;Laerm;40817;51.520;9.954;2023-07-29T07:13:08;44.68;41.89;59.92;;
11999;Laerm;40817;51.520;9.954;2023-07-29T07:15:35;48.56;42.16;62.14;;
11999;Laerm;40817;51.520;9.954;2023-07-29T07:18:03;44.08;40.43;55.90;;
11999;Laerm;40817;51.520;9.954;2023-07-29T07:20:31;44.61;40.71;68.34;;
11999;Laerm;40817;51.520;9.954;2023-07-29T07:23:00;43.70;40.71;55.89;;
11999;Laerm;40817;51.520;9.954;2023-07-29T07:25:27;43.82;40.80;51.02;;
11999;Laerm;40817;51.520;9.954;2023-07-29T07:27:55;43.85;40.62;54.13;;
11999;Laerm;40817;51.520;9.954;2023-07-29T07:30:22;44.16;41.22;54.88;;
11999;Laerm;40817;51.520;9.954;2023-07-29T07:32:50;43.58;41.14;56.47;;
11999;Laerm;40817;51.520;9.954;2023-07-29T07:35:17;43.91;40.98;49.51;;
11999;Laerm;40817;51.520;9.954;2023-07-29T07:37:45;44.08;40.89;57.16;;
11999;Laerm;40817;51.520;9.954;2023-07-29T07:40:14;44.43;41.22;67.70;;
11999;Laerm;40817;51.520;9.954;2023-07-29T07:42:41;44.60;41.06;58.29;;
11999;Laerm;40817;51.520;9.954;2023-07-29T07:45:09;44.10;40.98;56.89;;
11999;Laerm;40817;51.520;9.954;2023-07-29T07:47:36;43.95;40.98;50.11;;
11999;Laerm;40817;51.520;9.954;2023-07-29T07:50:05;44.57;41.06;58.70;;
11999;Laerm;40817;51.520;9.954;2023-07-29T07:52:33;46.28;42.29;60.17;;
11999;Laerm;40817;51.520;9.954;2023-07-29T07:55:01;44.42;40.80;54.19;;
11999;Laerm;40817;51.520;9.954;2023-07-29T07:57:30;43.85;40.80;51.37;;
11999;Laerm;40817;51.520;9.954;2023-07-29T07:59:57;43.88;40.23;52.78;;
11999;Laerm;40817;51.520;9.954;2023-07-29T08:02:25;44.20;40.62;58.00;;
11999;Laerm;40817;51.520;9.954;2023-07-29T08:04:52;44.08;41.22;48.63;;
11999;Laerm;40817;51.520;9.954;2023-07-29T08:07:19;45.03;41.46;61.54;;
11999;Laerm;40817;51.520;9.954;2023-07-29T08:09:47;44.67;40.98;65.30;;
11999;Laerm;40817;51.520;9.954;2023-07-29T08:12:14;43.97;40.62;52.74;;
11999;Laerm;40817;51.520;9.954;2023-07-29T08:14:43;44.73;40.33;57.89;;
11999;Laerm;40817;51.520;9.954;2023-07-29T08:17:10;43.91;40.80;51.90;;
11999;Laerm;40817;51.520;9.954;2023-07-29T08:19:38;43.63;40.53;51.50;;
11999;Laerm;40817;51.520;9.954;2023-07-29T08:22:05;44.01;41.46;53.00;;
11999;Laerm;40817;51.520;9.954;2023-07-29T08:24:33;43.65;40.33;48.98;;
11999;Laerm;40817;51.520;9.954;2023-07-29T08:27:01;44.13;40.45;56.76;;
11999;Laerm;40817;51.520;9.954;2023-07-29T08:29:29;43.59;40.43;50.25;;
11999;Laerm;40817;51.520;9.954;2023-07-29T08:31:58;43.75;39.34;59.49;;
11999;Laerm;40817;51.520;9.954;2023-07-29T08:34:25;43.62;40.98;47.96;;
11999;Laerm;40817;51.520;9.954;2023-07-29T08:36:53;44.78;40.33;58.05;;
11999;Laerm;40817;51.520;9.954;2023-07-29T08:39:20;43.93;41.30;52.94;;
11999;Laerm;40817;51.520;9.954;2023-07-29T08:41:57;43.35;39.81;57.08;;
11999;Laerm;40817;51.520;9.954;2023-07-29T08:44:35;44.14;40.43;56.06;;
11999;Laerm;40817;51.520;9.954;2023-07-29T08:47:04;43.91;40.53;50.67;;
11999;Laerm;40817;51.520;9.954;2023-07-29T08:49:32;44.30;40.13;57.71;;
11999;Laerm;40817;51.520;9.954;2023-07-29T08:52:01;43.68;41.30;58.91;;
11999;Laerm;40817;51.520;9.954;2023-07-29T08:54:29;44.16;41.68;53.67;;
11999;Laerm;40817;51.520;9.954;2023-07-29T08:56:57;47.02;41.30;73.93;;
11999;Laerm;40817;51.520;9.954;2023-07-29T08:59:25;44.06;41.14;53.02;;
11999;Laerm;40817;51.520;9.954;2023-07-29T09:01:54;45.01;41.89;57.36;;
11999;Laerm;40817;51.520;9.954;2023-07-29T09:04:24;44.03;41.38;54.65;;
11999;Laerm;40817;51.520;9.954;2023-07-29T09:06:52;44.02;41.68;54.31;;
11999;Laerm;40817;51.520;9.954;2023-07-29T09:09:21;43.91;40.98;48.92;;
11999;Laerm;40817;51.520;9.954;2023-07-29T09:11:49;43.87;40.98;53.82;;
11999;Laerm;40817;51.520;9.954;2023-07-29T09:14:17;45.85;41.68;55.76;;
11999;Laerm;40817;51.520;9.954;2023-07-29T09:16:45;44.04;40.71;56.69;;
11999;Laerm;40817;51.520;9.954;2023-07-29T09:19:13;43.92;41.14;51.82;;
11999;Laerm;40817;51.520;9.954;2023-07-29T09:21:43;46.33;41.61;59.96;;
11999;Laerm;40817;51.520;9.954;2023-07-29T09:24:16;45.28;40.13;60.02;;
11999;Laerm;40817;51.520;9.954;2023-07-29T09:26:49;44.03;41.30;58.93;;
11999;Laerm;40817;51.520;9.954;2023-07-29T09:29:22;45.31;41.38;63.16;;
11999;Laerm;40817;51.520;9.954;2023-07-29T09:31:50;44.91;40.89;56.60;;
11999;Laerm;40817;51.520;9.954;2023-07-29T09:34:18;43.74;40.89;45.89;;
11999;Laerm;40817;51.520;9.954;2023-07-29T09:36:47;43.79;40.43;51.28;;
11999;Laerm;40817;51.520;9.954;2023-07-29T09:39:17;43.80;41.22;52.81;;
11999;Laerm;40817;51.520;9.954;2023-07-29T09:41:48;44.54;40.89;55.30;;
11999;Laerm;40817;51.520;9.954;2023-07-29T09:44:15;43.80;40.89;52.14;;
11999;Laerm;40817;51.520;9.954;2023-07-29T09:46:46;43.29;39.70;54.42;;
11999;Laerm;40817;51.520;9.954;2023-07-29T09:49:14;58.88;40.89;79.32;;
11999;Laerm;40817;51.520;9.954;2023-07-29T09:51:42;44.87;40.80;54.38;;
11999;Laerm;40817;51.520;9.954;2023-07-29T09:54:11;43.85;39.81;52.17;;
11999;Laerm;40817;51.520;9.954;2023-07-29T09:56:41;43.97;40.03;51.72;;
11999;Laerm;40817;51.520;9.954;2023-07-29T09:59:10;44.03;40.43;53.40;;
11999;Laerm;40817;51.520;9.954;2023-07-29T10:01:38;51.79;43.39;60.61;;
11999;Laerm;40817;51.520;9.954;2023-07-29T10:04:06;48.98;41.38;59.92;;
11999;Laerm;40817;51.520;9.954;2023-07-29T10:06:35;43.49;40.89;48.70;;
11999;Laerm;40817;51.520;9.954;2023-07-29T10:09:04;43.82;40.80;57.77;;
11999;Laerm;40817;51.520;9.954;2023-07-29T10:11:34;44.87;40.80;62.17;;
11999;Laerm;40817;51.520;9.954;2023-07-29T10:14:02;43.55;40.43;50.87;;
11999;Laerm;40817;51.520;9.954;2023-07-29T10:16:30;43.00;40.13;45.42;;
11999;Laerm;40817;51.520;9.954;2023-07-29T10:18:59;57.58;41.22;79.70;;
11999;Laerm;40817;51.520;9.954;2023-07-29T10:21:27;55.00;40.89;76.55;;
11999;Laerm;40817;51.520;9.954;2023-07-29T10:24:01;47.55;40.89;79.20;;
11999;Laerm;40817;51.520;9.954;2023-07-29T10:26:34;44.91;40.13;68.83;;
11999;Laerm;40817;51.520;9.954;2023-07-29T10:29:04;44.83;40.71;62.36;;
11999;Laerm;40817;51.520;9.954;2023-07-29T10:31:34;43.57;39.70;54.04;;
11999;Laerm;40817;51.520;9.954;2023-07-29T10:34:03;46.13;39.92;62.68;;
11999;Laerm;40817;51.520;9.954;2023-07-29T10:36:31;50.23;41.82;67.90;;
11999;Laerm;40817;51.520;9.954;2023-07-29T10:38:58;43.55;39.46;66.34;;
11999;Laerm;40817;51.520;9.954;2023-07-29T10:41:55;43.44;39.92;58.43;;
11999;Laerm;40817;51.520;9.954;2023-07-29T10:44:51;43.50;39.21;58.13;;
11999;Laerm;40817;51.520;9.954;2023-07-29T10:47:22;44.40;40.23;59.75;;
11999;Laerm;40817;51.520;9.954;2023-07-29T10:49:53;43.54;39.70;58.58;;
11999;Laerm;40817;51.520;9.954;2023-07-29T10:52:40;44.27;40.03;68.21;;
11999;Laerm;40817;51.520;9.954;2023-07-29T10:55:29;44.24;41.61;59.73;;
11999;Laerm;40817;51.520;9.954;2023-07-29T10:58:14;43.64;39.92;58.65;;
11999;Laerm;40817;51.520;9.954;2023-07-29T11:00:44;43.40;40.33;58.07;;
11999;Laerm;40817;51.520;9.954;2023-07-29T11:03:13;43.92;39.46;66.75;;
11999;Laerm;40817;51.520;9.954;2023-07-29T11:05:45;43.65;40.53;55.93;;
11999;Laerm;40817;51.520;9.954;2023-07-29T11:08:25;44.35;40.33;71.49;;
11999;Laerm;40817;51.520;9.954;2023-07-29T11:11:04;44.16;40.98;55.51;;
11999;Laerm;40817;51.520;9.954;2023-07-29T11:13:36;43.46;40.03;55.21;;
11999;Laerm;40817;51.520;9.954;2023-07-29T11:16:05;43.45;39.46;47.84;;
11999;Laerm;40817;51.520;9.954;2023-07-29T11:18:35;43.85;40.62;51.78;;
11999;Laerm;40817;51.520;9.954;2023-07-29T11:21:03;43.98;40.23;62.26;;
11999;Laerm;40817;51.520;9.954;2023-07-29T11:23:34;44.40;40.98;53.87;;
11999;Laerm;40817;51.520;9.954;2023-07-29T11:26:03;44.67;40.71;55.88;;
11999;Laerm;40817;51.520;9.954;2023-07-29T11:28:39;44.40;40.13;58.25;;
11999;Laerm;40817;51.520;9.954;2023-07-29T11:31:07;47.38;40.98;61.61;;
11999;Laerm;40817;51.520;9.954;2023-07-29T11:33:34;44.62;41.14;58.29;;
11999;Laerm;40817;51.520;9.954;2023-07-29T11:36:03;43.85;40.80;57.58;;
11999;Laerm;40817;51.520;9.954;2023-07-29T11:38:30;46.46;40.13;62.07;;
11999;Laerm;40817;51.520;9.954;2023-07-29T11:41:03;46.92;39.81;63.10;;
11999;Laerm;40817;51.520;9.954;2023-07-29T11:43:35;45.28;41.33;62.79;;
11999;Laerm;40817;51.520;9.954;2023-07-29T11:46:04;43.49;40.13;52.02;;
11999;Laerm;40817;51.520;9.954;2023-07-29T11:48:33;44.08;40.89;56.27;;
11999;Laerm;40817;51.520;9.954;2023-07-29T11:51:01;44.00;40.80;52.86;;
11999;Laerm;40817;51.520;9.954;2023-07-29T11:53:29;44.48;40.71;61.23;;
11999;Laerm;40817;51.520;9.954;2023-07-29T11:55:58;43.83;41.22;46.28;;
11999;Laerm;40817;51.520;9.954;2023-07-29T11:58:26;44.08;41.46;51.34;;
11999;Laerm;40817;51.520;9.954;2023-07-29T12:00:54;44.74;40.89;56.65;;
11999;Laerm;40817;51.520;9.954;2023-07-29T12:03:23;44.04;41.30;48.61;;
11999;Laerm;40817;51.520;9.954;2023-07-29T12:05:51;43.75;41.06;51.13;;
11999;Laerm;40817;51.520;9.954;2023-07-29T12:08:19;44.01;40.98;56.03;;
11999;Laerm;40817;51.520;9.954;2023-07-29T12:10:47;44.35;40.53;61.76;;
11999;Laerm;40817;51.520;9.954;2023-07-29T12:13:15;44.08;41.06;52.91;;
11999;Laerm;40817;51.520;9.954;2023-07-29T12:15:42;43.96;41.30;54.51;;
11999;Laerm;40817;51.520;9.954;2023-07-29T12:18:10;43.82;40.43;53.08;;
11999;Laerm;40817;51.520;9.954;2023-07-29T12:20:40;43.93;40.63;61.30;;
11999;Laerm;40817;51.520;9.954;2023-07-29T12:23:08;45.16;42.03;58.25;;
11999;Laerm;40817;51.520;9.954;2023-07-29T12:25:36;44.93;39.34;58.88;;
11999;Laerm;40817;51.520;9.954;2023-07-29T12:28:05;44.96;41.46;62.26;;
11999;Laerm;40817;51.520;9.954;2023-07-29T12:30:33;46.29;41.61;58.79;;
11999;Laerm;40817;51.520;9.954;2023-07-29T12:33:01;44.67;41.61;58.49;;
11999;Laerm;40817;51.520;9.954;2023-07-29T12:35:37;45.46;41.68;63.35;;
11999;Laerm;40817;51.520;9.954;2023-07-29T12:38:07;43.73;41.06;49.08;;
11999;Laerm;40817;51.520;9.954;2023-07-29T12:40:39;44.08;39.58;58.03;;
11999;Laerm;40817;51.520;9.954;2023-07-29T12:43:08;45.49;41.14;56.92;;
11999;Laerm;40817;51.520;9.954;2023-07-29T12:45:37;43.64;40.03;49.85;;
11999;Laerm;40817;51.520;9.954;2023-07-29T12:48:06;44.94;41.75;60.36;;
11999;Laerm;40817;51.520;9.954;2023-07-29T12:50:33;45.07;41.38;59.82;;
11999;Laerm;40817;51.520;9.954;2023-07-29T12:53:01;45.08;41.61;53.45;;
11999;Laerm;40817;51.520;9.954;2023-07-29T12:55:32;44.08;41.68;50.35;;
11999;Laerm;40817;51.520;9.954;2023-07-29T12:58:01;44.10;40.43;49.25;;
11999;Laerm;40817;51.520;9.954;2023-07-29T13:00:28;45.14;42.29;60.72;;
11999;Laerm;40817;51.520;9.954;2023-07-29T13:02:56;44.82;41.61;55.92;;
11999;Laerm;40817;51.520;9.954;2023-07-29T13:05:24;45.90;41.61;57.86;;
11999;Laerm;40817;51.520;9.954;2023-07-29T13:07:51;44.53;41.68;53.00;;
11999;Laerm;40817;51.520;9.954;2023-07-29T13:10:19;43.84;39.68;50.91;;
11999;Laerm;40817;51.520;9.954;2023-07-29T13:12:48;45.03;41.30;56.81;;
11999;Laerm;40817;51.520;9.954;2023-07-29T13:15:17;43.90;39.46;53.21;;
11999;Laerm;40817;51.520;9.954;2023-07-29T13:17:45;44.19;41.14;54.94;;
11999;Laerm;40817;51.520;9.954;2023-07-29T13:20:13;43.82;41.06;48.00;;
11999;Laerm;40817;51.520;9.954;2023-07-29T13:22:41;44.17;39.92;66.86;;
11999;Laerm;40817;51.520;9.954;2023-07-29T13:25:08;43.70;40.89;46.13;;
11999;Laerm;40817;51.520;9.954;2023-07-29T13:27:36;43.89;39.70;59.66;;
11999;Laerm;40817;51.520;9.954;2023-07-29T13:30:09;45.36;41.38;59.20;;
11999;Laerm;40817;51.520;9.954;2023-07-29T13:32:37;44.26;40.33;56.84;;
11999;Laerm;40817;51.520;9.954;2023-07-29T13:35:05;45.22;42.03;62.62;;
11999;Laerm;40817;51.520;9.954;2023-07-29T13:37:33;45.43;41.68;66.16;;
11999;Laerm;40817;51.520;9.954;2023-07-29T13:40:01;46.10;41.14;62.04;;
11999;Laerm;40817;51.520;9.954;2023-07-29T13:42:29;46.84;42.82;58.75;;
11999;Laerm;40817;51.520;9.954;2023-07-29T13:44:56;45.46;41.61;51.10;;
11999;Laerm;40817;51.520;9.954;2023-07-29T13:47:25;46.98;40.89;61.80;;
11999;Laerm;40817;51.520;9.954;2023-07-29T13:49:53;47.53;42.35;68.08;;
11999;Laerm;40817;51.520;9.954;2023-07-29T13:52:20;44.00;41.14;53.97;;
11999;Laerm;40817;51.520;9.954;2023-07-29T13:54:48;49.87;41.14;68.62;;